Berkeley, Illinois
Current Conditions -  °F | °C
As of 10:38 AM on Monday 24 Nov 2014 (Local Time) from KORD Reporting Station
Light Snow Light Snow  
Wind Chill: 22°   Ceiling: 1500
Heat Index: 34°   Visibility: 1mi
Dew Point: 31°   Wind: 23mph
Humidity: 89%   Direction: 240°WSW
Pressure: 29.24"   Gusts: 32mph
Location:  41.88°N, 87.91°W
Report Text: KORD 241638Z 24020G28KT 1SM R10L/5000VP6000FT -SN BR SCT010 OVC015 01/M01 A2924 RMK AO2 PK WND 26030/1553 RAE27PLB06E31SNB24 PRESRR P0005 T00111006
Loading
Personal Weather Stations






























Interactive Weather Map New forecast layout! Learn more

10-Day Weather Forecast

Advertisements
Track Severe Weather on mobile